sensor_id;sensor_type;location;lat;lon;timestamp;P1;durP1;ratioP1;P2;durP2;ratioP2
41881;SDS011;27562;47.524;12.404;2023-04-24T00:00:25;1.45;;;0.50;;
41881;SDS011;27562;47.524;12.404;2023-04-24T00:02:50;0.85;;;0.50;;
41881;SDS011;27562;47.524;12.404;2023-04-24T00:05:16;1.23;;;0.52;;
41881;SDS011;27562;47.524;12.404;2023-04-24T00:07:42;1.92;;;0.47;;
41881;SDS011;27562;47.524;12.404;2023-04-24T00:10:10;0.73;;;0.40;;
41881;SDS011;27562;47.524;12.404;2023-04-24T00:12:36;1.17;;;0.45;;
41881;SDS011;27562;47.524;12.404;2023-04-24T00:15:02;0.82;;;0.50;;
41881;SDS011;27562;47.524;12.404;2023-04-24T00:17:29;1.60;;;0.50;;
41881;SDS011;27562;47.524;12.404;2023-04-24T00:19:55;1.40;;;0.50;;
41881;SDS011;27562;47.524;12.404;2023-04-24T00:22:26;1.15;;;0.60;;
41881;SDS011;27562;47.524;12.404;2023-04-24T00:24:52;1.25;;;0.60;;
41881;SDS011;27562;47.524;12.404;2023-04-24T00:27:18;1.10;;;0.40;;
41881;SDS011;27562;47.524;12.404;2023-04-24T00:29:44;1.00;;;0.50;;
41881;SDS011;27562;47.524;12.404;2023-04-24T00:32:10;0.63;;;0.43;;
41881;SDS011;27562;47.524;12.404;2023-04-24T00:34:36;1.52;;;0.50;;
41881;SDS011;27562;47.524;12.404;2023-04-24T00:37:01;0.68;;;0.40;;
41881;SDS011;27562;47.524;12.404;2023-04-24T00:39:27;1.23;;;0.80;;
41881;SDS011;27562;47.524;12.404;2023-04-24T00:41:53;0.80;;;0.50;;
41881;SDS011;27562;47.524;12.404;2023-04-24T00:44:19;1.58;;;0.55;;
41881;SDS011;27562;47.524;12.404;2023-04-24T00:46:45;0.77;;;0.55;;
41881;SDS011;27562;47.524;12.404;2023-04-24T00:49:12;0.80;;;0.47;;
41881;SDS011;27562;47.524;12.404;2023-04-24T00:51:39;0.82;;;0.45;;
41881;SDS011;27562;47.524;12.404;2023-04-24T00:54:05;0.90;;;0.40;;
41881;SDS011;27562;47.524;12.404;2023-04-24T00:56:31;1.17;;;0.50;;
41881;SDS011;27562;47.524;12.404;2023-04-24T00:58:57;0.88;;;0.40;;
41881;SDS011;27562;47.524;12.404;2023-04-24T01:01:24;2.42;;;0.60;;
41881;SDS011;27562;47.524;12.404;2023-04-24T01:03:50;0.93;;;0.47;;
41881;SDS011;27562;47.524;12.404;2023-04-24T01:06:18;2.20;;;0.60;;
41881;SDS011;27562;47.524;12.404;2023-04-24T01:08:45;1.08;;;0.47;;
41881;SDS011;27562;47.524;12.404;2023-04-24T01:11:12;0.95;;;0.40;;
41881;SDS011;27562;47.524;12.404;2023-04-24T01:13:37;2.38;;;0.50;;
41881;SDS011;27562;47.524;12.404;2023-04-24T01:16:04;0.90;;;0.50;;
41881;SDS011;27562;47.524;12.404;2023-04-24T01:18:30;0.63;;;0.43;;
41881;SDS011;27562;47.524;12.404;2023-04-24T01:20:59;1.17;;;0.40;;
41881;SDS011;27562;47.524;12.404;2023-04-24T01:23:28;1.02;;;0.60;;
41881;SDS011;27562;47.524;12.404;2023-04-24T01:25:54;0.85;;;0.50;;
41881;SDS011;27562;47.524;12.404;2023-04-24T01:28:20;1.25;;;0.40;;
41881;SDS011;27562;47.524;12.404;2023-04-24T01:30:46;1.08;;;0.57;;
41881;SDS011;27562;47.524;12.404;2023-04-24T01:33:12;0.63;;;0.40;;
41881;SDS011;27562;47.524;12.404;2023-04-24T01:35:38;0.75;;;0.47;;
41881;SDS011;27562;47.524;12.404;2023-04-24T01:38:05;0.45;;;0.40;;
41881;SDS011;27562;47.524;12.404;2023-04-24T01:40:31;0.68;;;0.30;;
41881;SDS011;27562;47.524;12.404;2023-04-24T01:42:57;0.30;;;0.30;;
41881;SDS011;27562;47.524;12.404;2023-04-24T01:45:23;0.60;;;0.40;;
41881;SDS011;27562;47.524;12.404;2023-04-24T01:47:50;1.02;;;0.40;;
41881;SDS011;27562;47.524;12.404;2023-04-24T01:50:16;0.85;;;0.40;;
41881;SDS011;27562;47.524;12.404;2023-04-24T01:52:42;0.93;;;0.40;;
41881;SDS011;27562;47.524;12.404;2023-04-24T01:55:08;0.93;;;0.50;;
41881;SDS011;27562;47.524;12.404;2023-04-24T01:57:34;0.82;;;0.50;;
41881;SDS011;27562;47.524;12.404;2023-04-24T02:00:01;2.47;;;0.75;;
41881;SDS011;27562;47.524;12.404;2023-04-24T02:02:29;5.45;;;1.70;;
41881;SDS011;27562;47.524;12.404;2023-04-24T02:04:55;5.95;;;2.80;;
41881;SDS011;27562;47.524;12.404;2023-04-24T02:07:21;6.47;;;2.97;;
41881;SDS011;27562;47.524;12.404;2023-04-24T02:09:47;6.18;;;3.33;;
41881;SDS011;27562;47.524;12.404;2023-04-24T02:12:12;8.57;;;3.30;;
41881;SDS011;27562;47.524;12.404;2023-04-24T02:14:39;6.32;;;3.30;;
41881;SDS011;27562;47.524;12.404;2023-04-24T02:17:04;6.03;;;3.22;;
41881;SDS011;27562;47.524;12.404;2023-04-24T02:19:30;3.25;;;1.63;;
41881;SDS011;27562;47.524;12.404;2023-04-24T02:21:56;2.88;;;1.10;;
41881;SDS011;27562;47.524;12.404;2023-04-24T02:24:22;1.85;;;0.90;;
41881;SDS011;27562;47.524;12.404;2023-04-24T02:26:47;3.03;;;1.10;;
41881;SDS011;27562;47.524;12.404;2023-04-24T02:29:13;1.65;;;0.80;;
41881;SDS011;27562;47.524;12.404;2023-04-24T02:31:39;1.55;;;0.80;;
41881;SDS011;27562;47.524;12.404;2023-04-24T02:34:05;1.17;;;0.50;;
41881;SDS011;27562;47.524;12.404;2023-04-24T02:36:31;1.77;;;0.63;;
41881;SDS011;27562;47.524;12.404;2023-04-24T02:38:57;0.70;;;0.40;;
41881;SDS011;27562;47.524;12.404;2023-04-24T02:41:22;1.88;;;0.60;;
41881;SDS011;27562;47.524;12.404;2023-04-24T02:43:48;1.48;;;0.50;;
41881;SDS011;27562;47.524;12.404;2023-04-24T02:46:14;2.53;;;0.50;;
41881;SDS011;27562;47.524;12.404;2023-04-24T02:48:40;0.80;;;0.40;;
41881;SDS011;27562;47.524;12.404;2023-04-24T02:51:05;1.55;;;0.38;;
41881;SDS011;27562;47.524;12.404;2023-04-24T02:53:31;1.25;;;0.40;;
41881;SDS011;27562;47.524;12.404;2023-04-24T02:55:57;1.00;;;0.47;;
41881;SDS011;27562;47.524;12.404;2023-04-24T02:58:23;0.60;;;0.40;;
41881;SDS011;27562;47.524;12.404;2023-04-24T03:00:52;1.88;;;0.45;;
41881;SDS011;27562;47.524;12.404;2023-04-24T03:03:20;1.20;;;0.47;;
41881;SDS011;27562;47.524;12.404;2023-04-24T03:05:46;0.77;;;0.45;;
41881;SDS011;27562;47.524;12.404;2023-04-24T03:08:12;0.70;;;0.40;;
41881;SDS011;27562;47.524;12.404;2023-04-24T03:10:39;0.90;;;0.40;;
41881;SDS011;27562;47.524;12.404;2023-04-24T03:13:05;1.35;;;0.50;;
41881;SDS011;27562;47.524;12.404;2023-04-24T03:15:31;1.40;;;0.60;;
41881;SDS011;27562;47.524;12.404;2023-04-24T03:17:56;0.93;;;0.50;;
41881;SDS011;27562;47.524;12.404;2023-04-24T03:20:22;1.95;;;0.40;;
41881;SDS011;27562;47.524;12.404;2023-04-24T03:22:48;0.77;;;0.40;;
41881;SDS011;27562;47.524;12.404;2023-04-24T03:25:14;0.30;;;0.22;;
41881;SDS011;27562;47.524;12.404;2023-04-24T03:27:40;0.60;;;0.30;;
41881;SDS011;27562;47.524;12.404;2023-04-24T03:30:07;0.52;;;0.30;;
41881;SDS011;27562;47.524;12.404;2023-04-24T03:32:33;0.73;;;0.30;;
41881;SDS011;27562;47.524;12.404;2023-04-24T03:35:00;0.65;;;0.40;;
41881;SDS011;27562;47.524;12.404;2023-04-24T03:37:26;0.30;;;0.30;;
41881;SDS011;27562;47.524;12.404;2023-04-24T03:39:52;1.73;;;0.80;;
41881;SDS011;27562;47.524;12.404;2023-04-24T03:42:17;0.40;;;0.30;;
41881;SDS011;27562;47.524;12.404;2023-04-24T03:44:43;0.80;;;0.30;;
41881;SDS011;27562;47.524;12.404;2023-04-24T03:47:09;0.43;;;0.30;;
41881;SDS011;27562;47.524;12.404;2023-04-24T03:49:35;0.98;;;0.28;;
41881;SDS011;27562;47.524;12.404;2023-04-24T03:52:01;0.80;;;0.25;;
41881;SDS011;27562;47.524;12.404;2023-04-24T03:54:26;0.50;;;0.20;;
41881;SDS011;27562;47.524;12.404;2023-04-24T03:56:52;0.73;;;0.43;;
41881;SDS011;27562;47.524;12.404;2023-04-24T03:59:18;0.90;;;0.40;;
41881;SDS011;27562;47.524;12.404;2023-04-24T04:01:44;1.45;;;0.50;;
41881;SDS011;27562;47.524;12.404;2023-04-24T04:04:11;0.25;;;0.20;;
41881;SDS011;27562;47.524;12.404;2023-04-24T04:06:36;0.70;;;0.30;;
41881;SDS011;27562;47.524;12.404;2023-04-24T04:09:02;1.10;;;0.68;;
41881;SDS011;27562;47.524;12.404;2023-04-24T04:11:28;1.05;;;0.60;;
41881;SDS011;27562;47.524;12.404;2023-04-24T04:13:55;1.67;;;0.80;;
41881;SDS011;27562;47.524;12.404;2023-04-24T04:16:22;1.48;;;0.60;;
41881;SDS011;27562;47.524;12.404;2023-04-24T04:18:47;1.63;;;0.50;;
41881;SDS011;27562;47.524;12.404;2023-04-24T04:21:13;0.70;;;0.40;;
41881;SDS011;27562;47.524;12.404;2023-04-24T04:23:39;1.10;;;0.50;;
41881;SDS011;27562;47.524;12.404;2023-04-24T04:26:05;1.23;;;0.38;;
41881;SDS011;27562;47.524;12.404;2023-04-24T04:28:32;0.90;;;0.65;;
41881;SDS011;27562;47.524;12.404;2023-04-24T04:30:58;1.33;;;0.70;;
41881;SDS011;27562;47.524;12.404;2023-04-24T04:33:24;1.08;;;0.40;;
41881;SDS011;27562;47.524;12.404;2023-04-24T04:35:50;0.52;;;0.40;;
41881;SDS011;27562;47.524;12.404;2023-04-24T04:38:21;0.98;;;0.47;;
41881;SDS011;27562;47.524;12.404;2023-04-24T04:40:47;1.45;;;0.60;;
41881;SDS011;27562;47.524;12.404;2023-04-24T04:43:13;1.00;;;0.75;;
41881;SDS011;27562;47.524;12.404;2023-04-24T04:45:41;0.98;;;0.60;;
41881;SDS011;27562;47.524;12.404;2023-04-24T04:48:08;1.40;;;0.50;;
41881;SDS011;27562;47.524;12.404;2023-04-24T04:50:37;1.98;;;0.65;;
41881;SDS011;27562;47.524;12.404;2023-04-24T04:53:03;1.13;;;0.70;;
41881;SDS011;27562;47.524;12.404;2023-04-24T04:55:29;2.42;;;1.40;;
41881;SDS011;27562;47.524;12.404;2023-04-24T04:57:55;2.60;;;1.88;;
41881;SDS011;27562;47.524;12.404;2023-04-24T05:00:21;2.20;;;1.60;;
41881;SDS011;27562;47.524;12.404;2023-04-24T05:02:50;3.42;;;2.00;;
41881;SDS011;27562;47.524;12.404;2023-04-24T05:05:16;2.95;;;1.83;;
41881;SDS011;27562;47.524;12.404;2023-04-24T05:07:42;6.07;;;3.40;;
41881;SDS011;27562;47.524;12.404;2023-04-24T05:10:08;5.72;;;3.40;;
41881;SDS011;27562;47.524;12.404;2023-04-24T05:12:34;4.63;;;2.40;;
41881;SDS011;27562;47.524;12.404;2023-04-24T05:15:00;2.17;;;1.08;;
41881;SDS011;27562;47.524;12.404;2023-04-24T05:17:25;1.98;;;0.80;;
41881;SDS011;27562;47.524;12.404;2023-04-24T05:19:51;1.95;;;0.95;;
41881;SDS011;27562;47.524;12.404;2023-04-24T05:22:17;4.25;;;1.85;;
41881;SDS011;27562;47.524;12.404;2023-04-24T05:24:45;3.10;;;1.85;;
41881;SDS011;27562;47.524;12.404;2023-04-24T05:27:11;3.92;;;1.90;;
41881;SDS011;27562;47.524;12.404;2023-04-24T05:29:37;3.25;;;1.98;;
41881;SDS011;27562;47.524;12.404;2023-04-24T05:32:03;4.80;;;2.20;;
41881;SDS011;27562;47.524;12.404;2023-04-24T05:34:29;2.05;;;1.13;;
41881;SDS011;27562;47.524;12.404;2023-04-24T05:36:55;1.63;;;0.90;;
41881;SDS011;27562;47.524;12.404;2023-04-24T05:39:20;1.10;;;0.70;;
41881;SDS011;27562;47.524;12.404;2023-04-24T05:41:46;1.63;;;0.80;;
41881;SDS011;27562;47.524;12.404;2023-04-24T05:44:12;1.30;;;0.70;;
41881;SDS011;27562;47.524;12.404;2023-04-24T05:46:38;2.22;;;0.82;;
41881;SDS011;27562;47.524;12.404;2023-04-24T05:49:03;1.60;;;0.70;;
41881;SDS011;27562;47.524;12.404;2023-04-24T05:51:29;1.65;;;0.65;;
41881;SDS011;27562;47.524;12.404;2023-04-24T05:53:56;2.85;;;1.50;;
41881;SDS011;27562;47.524;12.404;2023-04-24T05:56:22;1.00;;;0.60;;
41881;SDS011;27562;47.524;12.404;2023-04-24T05:58:48;2.22;;;0.80;;
41881;SDS011;27562;47.524;12.404;2023-04-24T06:01:14;2.20;;;0.80;;
41881;SDS011;27562;47.524;12.404;2023-04-24T06:03:40;1.48;;;0.80;;
41881;SDS011;27562;47.524;12.404;2023-04-24T06:06:06;0.98;;;0.55;;
41881;SDS011;27562;47.524;12.404;2023-04-24T06:08:33;1.35;;;0.50;;
41881;SDS011;27562;47.524;12.404;2023-04-24T06:10:59;3.45;;;0.60;;
41881;SDS011;27562;47.524;12.404;2023-04-24T06:13:25;1.88;;;0.47;;
41881;SDS011;27562;47.524;12.404;2023-04-24T06:15:51;1.80;;;0.70;;
41881;SDS011;27562;47.524;12.404;2023-04-24T06:18:17;3.17;;;0.80;;
41881;SDS011;27562;47.524;12.404;2023-04-24T06:20:43;2.08;;;0.60;;
41881;SDS011;27562;47.524;12.404;2023-04-24T06:23:08;2.03;;;0.85;;
41881;SDS011;27562;47.524;12.404;2023-04-24T06:25:34;0.95;;;0.43;;
41881;SDS011;27562;47.524;12.404;2023-04-24T06:28:00;1.83;;;0.80;;
41881;SDS011;27562;47.524;12.404;2023-04-24T06:30:26;0.77;;;0.43;;
41881;SDS011;27562;47.524;12.404;2023-04-24T06:32:53;0.50;;;0.40;;
41881;SDS011;27562;47.524;12.404;2023-04-24T06:35:18;0.65;;;0.35;;
41881;SDS011;27562;47.524;12.404;2023-04-24T06:37:44;0.50;;;0.40;;
41881;SDS011;27562;47.524;12.404;2023-04-24T06:40:10;2.05;;;0.40;;
41881;SDS011;27562;47.524;12.404;2023-04-24T06:42:36;1.77;;;0.52;;
41881;SDS011;27562;47.524;12.404;2023-04-24T06:45:02;0.93;;;0.50;;
41881;SDS011;27562;47.524;12.404;2023-04-24T06:47:28;1.30;;;0.43;;
41881;SDS011;27562;47.524;12.404;2023-04-24T06:49:54;1.08;;;0.40;;
41881;SDS011;27562;47.524;12.404;2023-04-24T06:52:20;1.10;;;0.60;;
41881;SDS011;27562;47.524;12.404;2023-04-24T06:54:46;1.65;;;0.50;;
41881;SDS011;27562;47.524;12.404;2023-04-24T06:57:12;1.02;;;0.50;;
41881;SDS011;27562;47.524;12.404;2023-04-24T06:59:37;1.13;;;0.60;;
41881;SDS011;27562;47.524;12.404;2023-04-24T07:02:03;0.52;;;0.47;;
41881;SDS011;27562;47.524;12.404;2023-04-24T07:04:29;1.85;;;0.43;;
41881;SDS011;27562;47.524;12.404;2023-04-24T07:06:55;1.13;;;0.65;;
41881;SDS011;27562;47.524;12.404;2023-04-24T07:09:22;1.13;;;0.60;;
41881;SDS011;27562;47.524;12.404;2023-04-24T07:11:50;2.35;;;0.70;;
41881;SDS011;27562;47.524;12.404;2023-04-24T07:14:19;1.27;;;0.70;;
41881;SDS011;27562;47.524;12.404;2023-04-24T07:16:45;1.63;;;0.50;;
41881;SDS011;27562;47.524;12.404;2023-04-24T07:19:11;0.77;;;0.40;;
41881;SDS011;27562;47.524;12.404;2023-04-24T07:21:38;0.68;;;0.38;;
41881;SDS011;27562;47.524;12.404;2023-04-24T07:24:03;0.90;;;0.50;;
41881;SDS011;27562;47.524;12.404;2023-04-24T07:26:29;0.57;;;0.35;;
41881;SDS011;27562;47.524;12.404;2023-04-24T07:28:55;1.02;;;0.45;;
41881;SDS011;27562;47.524;12.404;2023-04-24T07:31:21;0.40;;;0.30;;
41881;SDS011;27562;47.524;12.404;2023-04-24T07:33:47;0.70;;;0.40;;
41881;SDS011;27562;47.524;12.404;2023-04-24T07:36:13;1.67;;;0.95;;
41881;SDS011;27562;47.524;12.404;2023-04-24T07:38:44;4.30;;;2.47;;
41881;SDS011;27562;47.524;12.404;2023-04-24T07:41:10;3.83;;;2.17;;
41881;SDS011;27562;47.524;12.404;2023-04-24T07:43:37;4.30;;;2.40;;
41881;SDS011;27562;47.524;12.404;2023-04-24T07:46:03;3.80;;;2.63;;
41881;SDS011;27562;47.524;12.404;2023-04-24T07:48:29;3.58;;;1.80;;
41881;SDS011;27562;47.524;12.404;2023-04-24T07:50:55;2.22;;;1.23;;
41881;SDS011;27562;47.524;12.404;2023-04-24T07:53:20;4.50;;;0.85;;
41881;SDS011;27562;47.524;12.404;2023-04-24T07:55:46;1.35;;;0.65;;
41881;SDS011;27562;47.524;12.404;2023-04-24T07:58:12;1.10;;;0.55;;
41881;SDS011;27562;47.524;12.404;2023-04-24T08:00:37;3.22;;;0.85;;
41881;SDS011;27562;47.524;12.404;2023-04-24T08:03:03;1.50;;;0.82;;
41881;SDS011;27562;47.524;12.404;2023-04-24T08:05:29;1.05;;;0.50;;
41881;SDS011;27562;47.524;12.404;2023-04-24T08:07:55;1.23;;;0.50;;
41881;SDS011;27562;47.524;12.404;2023-04-24T08:10:24;0.85;;;0.40;;
41881;SDS011;27562;47.524;12.404;2023-04-24T08:12:50;0.75;;;0.40;;
41881;SDS011;27562;47.524;12.404;2023-04-24T08:15:16;0.90;;;0.45;;
41881;SDS011;27562;47.524;12.404;2023-04-24T08:17:41;1.05;;;0.40;;
41881;SDS011;27562;47.524;12.404;2023-04-24T08:20:08;1.38;;;0.60;;
41881;SDS011;27562;47.524;12.404;2023-04-24T08:22:38;1.17;;;0.45;;
41881;SDS011;27562;47.524;12.404;2023-04-24T08:25:05;1.10;;;0.50;;
41881;SDS011;27562;47.524;12.404;2023-04-24T08:27:32;1.15;;;0.35;;
41881;SDS011;27562;47.524;12.404;2023-04-24T08:29:57;1.60;;;0.50;;
41881;SDS011;27562;47.524;12.404;2023-04-24T08:32:26;1.02;;;0.47;;
41881;SDS011;27562;47.524;12.404;2023-04-24T08:34:55;1.48;;;0.60;;
41881;SDS011;27562;47.524;12.404;2023-04-24T08:37:21;1.27;;;0.57;;
41881;SDS011;27562;47.524;12.404;2023-04-24T08:39:47;0.90;;;0.50;;
41881;SDS011;27562;47.524;12.404;2023-04-24T08:42:14;1.30;;;0.55;;
41881;SDS011;27562;47.524;12.404;2023-04-24T08:44:42;0.95;;;0.50;;
41881;SDS011;27562;47.524;12.404;2023-04-24T08:47:08;1.85;;;0.60;;
41881;SDS011;27562;47.524;12.404;2023-04-24T08:49:34;0.57;;;0.30;;
41881;SDS011;27562;47.524;12.404;2023-04-24T08:52:01;1.95;;;0.52;;
41881;SDS011;27562;47.524;12.404;2023-04-24T08:54:28;1.50;;;0.60;;
41881;SDS011;27562;47.524;12.404;2023-04-24T08:56:54;2.28;;;1.00;;
41881;SDS011;27562;47.524;12.404;2023-04-24T08:59:26;2.35;;;0.98;;
41881;SDS011;27562;47.524;12.404;2023-04-24T09:01:53;2.53;;;0.85;;
41881;SDS011;27562;47.524;12.404;2023-04-24T09:04:21;1.88;;;0.82;;
41881;SDS011;27562;47.524;12.404;2023-04-24T09:06:49;1.40;;;0.70;;
41881;SDS011;27562;47.524;12.404;2023-04-24T09:09:22;2.00;;;0.70;;
41881;SDS011;27562;47.524;12.404;2023-04-24T09:11:50;1.50;;;0.80;;
41881;SDS011;27562;47.524;12.404;2023-04-24T09:14:18;1.80;;;0.88;;
41881;SDS011;27562;47.524;12.404;2023-04-24T09:16:45;1.90;;;0.80;;
41881;SDS011;27562;47.524;12.404;2023-04-24T09:19:11;2.13;;;0.82;;
41881;SDS011;27562;47.524;12.404;2023-04-24T09:21:37;2.45;;;0.82;;
41881;SDS011;27562;47.524;12.404;2023-04-24T09:24:04;2.08;;;0.70;;
41881;SDS011;27562;47.524;12.404;2023-04-24T09:26:34;3.38;;;0.70;;
41881;SDS011;27562;47.524;12.404;2023-04-24T09:29:00;1.70;;;1.00;;
41881;SDS011;27562;47.524;12.404;2023-04-24T09:31:27;2.97;;;0.85;;
41881;SDS011;27562;47.524;12.404;2023-04-24T09:34:02;4.72;;;3.00;;
41881;SDS011;27562;47.524;12.404;2023-04-24T09:36:34;5.75;;;3.50;;
41881;SDS011;27562;47.524;12.404;2023-04-24T09:39:03;5.07;;;2.30;;
41881;SDS011;27562;47.524;12.404;2023-04-24T09:41:57;1.67;;;0.50;;
41881;SDS011;27562;47.524;12.404;2023-04-24T09:44:23;2.03;;;0.57;;
41881;SDS011;27562;47.524;12.404;2023-04-24T09:49:27;0.98;;;0.40;;
41881;SDS011;27562;47.524;12.404;2023-04-24T09:52:08;1.98;;;0.90;;
41881;SDS011;27562;47.524;12.404;2023-04-24T09:54:35;2.05;;;1.00;;
41881;SDS011;27562;47.524;12.404;2023-04-24T09:57:02;1.80;;;1.00;;
41881;SDS011;27562;47.524;12.404;2023-04-24T09:59:28;2.75;;;0.88;;
41881;SDS011;27562;47.524;12.404;2023-04-24T10:01:54;3.28;;;1.00;;
41881;SDS011;27562;47.524;12.404;2023-04-24T10:06:47;2.30;;;1.25;;
41881;SDS011;27562;47.524;12.404;2023-04-24T10:09:14;1.00;;;0.52;;
41881;SDS011;27562;47.524;12.404;2023-04-24T10:11:41;0.95;;;0.45;;
41881;SDS011;27562;47.524;12.404;2023-04-24T10:14:17;1.75;;;0.65;;
41881;SDS011;27562;47.524;12.404;2023-04-24T10:16:45;8.20;;;4.22;;
41881;SDS011;27562;47.524;12.404;2023-04-24T10:19:12;4.60;;;2.15;;
41881;SDS011;27562;47.524;12.404;2023-04-24T10:21:40;1.13;;;0.52;;
41881;SDS011;27562;47.524;12.404;2023-04-24T10:24:08;1.25;;;0.55;;
41881;SDS011;27562;47.524;12.404;2023-04-24T10:26:35;0.52;;;0.30;;
41881;SDS011;27562;47.524;12.404;2023-04-24T10:29:02;1.42;;;0.60;;
41881;SDS011;27562;47.524;12.404;2023-04-24T10:31:34;3.97;;;1.20;;
41881;SDS011;27562;47.524;12.404;2023-04-24T10:34:01;2.53;;;1.13;;
41881;SDS011;27562;47.524;12.404;2023-04-24T10:36:28;5.45;;;3.80;;
41881;SDS011;27562;47.524;12.404;2023-04-24T10:38:57;2.42;;;0.80;;
41881;SDS011;27562;47.524;12.404;2023-04-24T10:41:26;3.33;;;1.13;;
41881;SDS011;27562;47.524;12.404;2023-04-24T10:44:04;2.22;;;1.27;;
41881;SDS011;27562;47.524;12.404;2023-04-24T10:46:31;2.35;;;1.40;;
41881;SDS011;27562;47.524;12.404;2023-04-24T10:48:57;3.20;;;1.50;;
41881;SDS011;27562;47.524;12.404;2023-04-24T10:51:24;4.35;;;2.65;;
41881;SDS011;27562;47.524;12.404;2023-04-24T10:59:44;3.60;;;1.45;;
41881;SDS011;27562;47.524;12.404;2023-04-24T11:02:10;2.78;;;1.05;;
41881;SDS011;27562;47.524;12.404;2023-04-24T11:04:36;1.23;;;0.80;;
41881;SDS011;27562;47.524;12.404;2023-04-24T11:07:04;3.03;;;0.90;;
41881;SDS011;27562;47.524;12.404;2023-04-24T11:09:31;2.15;;;0.80;;
41881;SDS011;27562;47.524;12.404;2023-04-24T11:12:07;1.20;;;0.60;;
41881;SDS011;27562;47.524;12.404;2023-04-24T11:17:36;1.98;;;1.35;;
41881;SDS011;27562;47.524;12.404;2023-04-24T11:20:05;1.83;;;0.82;;
41881;SDS011;27562;47.524;12.404;2023-04-24T11:25:02;2.55;;;0.70;;
41881;SDS011;27562;47.524;12.404;2023-04-24T11:27:29;1.13;;;0.50;;
41881;SDS011;27562;47.524;12.404;2023-04-24T11:32:24;1.50;;;0.80;;
41881;SDS011;27562;47.524;12.404;2023-04-24T11:34:55;1.15;;;0.80;;
41881;SDS011;27562;47.524;12.404;2023-04-24T11:37:41;1.63;;;0.80;;
41881;SDS011;27562;47.524;12.404;2023-04-24T11:40:15;1.10;;;0.70;;
41881;SDS011;27562;47.524;12.404;2023-04-24T11:42:43;1.25;;;0.57;;
41881;SDS011;27562;47.524;12.404;2023-04-24T11:45:11;2.00;;;0.70;;
41881;SDS011;27562;47.524;12.404;2023-04-24T11:47:47;1.05;;;0.55;;
41881;SDS011;27562;47.524;12.404;2023-04-24T11:50:14;1.27;;;0.43;;
41881;SDS011;27562;47.524;12.404;2023-04-24T11:52:43;0.77;;;0.50;;
41881;SDS011;27562;47.524;12.404;2023-04-24T11:57:50;1.40;;;0.63;;
41881;SDS011;27562;47.524;12.404;2023-04-24T12:00:19;1.48;;;0.60;;
41881;SDS011;27562;47.524;12.404;2023-04-24T12:02:47;1.25;;;0.70;;
41881;SDS011;27562;47.524;12.404;2023-04-24T12:05:20;1.77;;;0.73;;
41881;SDS011;27562;47.524;12.404;2023-04-24T12:07:48;1.55;;;0.73;;
41881;SDS011;27562;47.524;12.404;2023-04-24T12:10:14;1.13;;;0.60;;
41881;SDS011;27562;47.524;12.404;2023-04-24T12:12:44;1.15;;;0.60;;
41881;SDS011;27562;47.524;12.404;2023-04-24T12:15:11;2.00;;;1.00;;
41881;SDS011;27562;47.524;12.404;2023-04-24T12:17:40;1.20;;;0.65;;
41881;SDS011;27562;47.524;12.404;2023-04-24T12:20:07;1.70;;;0.73;;
41881;SDS011;27562;47.524;12.404;2023-04-24T12:25:12;2.30;;;1.00;;
41881;SDS011;27562;47.524;12.404;2023-04-24T12:27:39;1.00;;;0.65;;
41881;SDS011;27562;47.524;12.404;2023-04-24T12:30:05;2.70;;;0.95;;
41881;SDS011;27562;47.524;12.404;2023-04-24T12:32:42;1.20;;;0.73;;
41881;SDS011;27562;47.524;12.404;2023-04-24T12:35:09;2.17;;;0.80;;
41881;SDS011;27562;47.524;12.404;2023-04-24T12:37:34;2.97;;;1.08;;
41881;SDS011;27562;47.524;12.404;2023-04-24T12:42:33;2.72;;;0.88;;
41881;SDS011;27562;47.524;12.404;2023-04-24T12:45:03;1.98;;;0.90;;
41881;SDS011;27562;47.524;12.404;2023-04-24T12:49:57;2.97;;;1.10;;
41881;SDS011;27562;47.524;12.404;2023-04-24T12:52:23;1.95;;;0.90;;
41881;SDS011;27562;47.524;12.404;2023-04-24T12:54:52;2.25;;;1.45;;
41881;SDS011;27562;47.524;12.404;2023-04-24T12:57:19;2.60;;;1.40;;
41881;SDS011;27562;47.524;12.404;2023-04-24T12:59:44;2.63;;;1.23;;
41881;SDS011;27562;47.524;12.404;2023-04-24T13:02:10;3.95;;;1.10;;
41881;SDS011;27562;47.524;12.404;2023-04-24T13:04:36;1.65;;;0.77;;
41881;SDS011;27562;47.524;12.404;2023-04-24T13:07:02;1.42;;;0.80;;
41881;SDS011;27562;47.524;12.404;2023-04-24T13:09:28;1.17;;;0.75;;
41881;SDS011;27562;47.524;12.404;2023-04-24T13:11:55;1.38;;;0.80;;
41881;SDS011;27562;47.524;12.404;2023-04-24T13:14:23;3.17;;;0.70;;
41881;SDS011;27562;47.524;12.404;2023-04-24T13:16:49;0.77;;;0.40;;
41881;SDS011;27562;47.524;12.404;2023-04-24T13:19:14;1.80;;;1.00;;
41881;SDS011;27562;47.524;12.404;2023-04-24T13:21:40;2.33;;;1.55;;
41881;SDS011;27562;47.524;12.404;2023-04-24T13:24:06;1.92;;;0.98;;
41881;SDS011;27562;47.524;12.404;2023-04-24T13:26:32;2.05;;;0.98;;
41881;SDS011;27562;47.524;12.404;2023-04-24T13:29:01;2.30;;;0.80;;
41881;SDS011;27562;47.524;12.404;2023-04-24T13:31:28;1.10;;;0.82;;
41881;SDS011;27562;47.524;12.404;2023-04-24T13:33:55;1.48;;;0.70;;
41881;SDS011;27562;47.524;12.404;2023-04-24T13:36:21;1.05;;;0.70;;
41881;SDS011;27562;47.524;12.404;2023-04-24T13:38:46;2.65;;;0.82;;
41881;SDS011;27562;47.524;12.404;2023-04-24T13:41:12;3.00;;;0.90;;
41881;SDS011;27562;47.524;12.404;2023-04-24T13:43:38;2.15;;;1.33;;
41881;SDS011;27562;47.524;12.404;2023-04-24T13:46:04;1.92;;;0.75;;
41881;SDS011;27562;47.524;12.404;2023-04-24T13:48:30;2.58;;;1.48;;
41881;SDS011;27562;47.524;12.404;2023-04-24T13:50:55;1.45;;;0.60;;
41881;SDS011;27562;47.524;12.404;2023-04-24T13:53:22;3.60;;;1.65;;
41881;SDS011;27562;47.524;12.404;2023-04-24T13:55:48;1.83;;;0.80;;
41881;SDS011;27562;47.524;12.404;2023-04-24T13:58:13;1.35;;;0.60;;
41881;SDS011;27562;47.524;12.404;2023-04-24T14:00:40;1.27;;;0.70;;
41881;SDS011;27562;47.524;12.404;2023-04-24T14:03:05;4.78;;;0.80;;
41881;SDS011;27562;47.524;12.404;2023-04-24T14:05:31;2.40;;;1.20;;
41881;SDS011;27562;47.524;12.404;2023-04-24T14:07:57;4.32;;;1.60;;
41881;SDS011;27562;47.524;12.404;2023-04-24T14:10:23;3.30;;;0.85;;
41881;SDS011;27562;47.524;12.404;2023-04-24T14:12:49;1.17;;;0.70;;
41881;SDS011;27562;47.524;12.404;2023-04-24T14:15:16;1.38;;;0.60;;
41881;SDS011;27562;47.524;12.404;2023-04-24T14:17:42;1.08;;;0.60;;
41881;SDS011;27562;47.524;12.404;2023-04-24T14:20:07;1.15;;;0.55;;
41881;SDS011;27562;47.524;12.404;2023-04-24T14:22:34;1.50;;;0.75;;
41881;SDS011;27562;47.524;12.404;2023-04-24T14:24:59;3.05;;;0.80;;
41881;SDS011;27562;47.524;12.404;2023-04-24T14:27:25;3.00;;;0.70;;
41881;SDS011;27562;47.524;12.404;2023-04-24T14:29:51;1.55;;;0.70;;
41881;SDS011;27562;47.524;12.404;2023-04-24T14:32:17;2.90;;;0.90;;
41881;SDS011;27562;47.524;12.404;2023-04-24T14:34:44;3.00;;;0.98;;
41881;SDS011;27562;47.524;12.404;2023-04-24T14:37:10;2.50;;;0.75;;
41881;SDS011;27562;47.524;12.404;2023-04-24T14:39:36;1.63;;;0.70;;
41881;SDS011;27562;47.524;12.404;2023-04-24T14:42:01;0.73;;;0.50;;
41881;SDS011;27562;47.524;12.404;2023-04-24T14:44:27;4.53;;;1.60;;
41881;SDS011;27562;47.524;12.404;2023-04-24T14:46:53;2.22;;;0.82;;
41881;SDS011;27562;47.524;12.404;2023-04-24T14:49:19;4.22;;;1.27;;
41881;SDS011;27562;47.524;12.404;2023-04-24T14:51:45;3.47;;;1.40;;
41881;SDS011;27562;47.524;12.404;2023-04-24T14:54:10;2.70;;;1.17;;
41881;SDS011;27562;47.524;12.404;2023-04-24T14:56:36;3.67;;;1.52;;
41881;SDS011;27562;47.524;12.404;2023-04-24T14:59:04;4.95;;;3.00;;